createdAt,value
2023-01-27T00:02:07.806Z,41.06
2023-01-27T00:07:09.826Z,41.18
2023-01-27T00:12:38.409Z,40.98
2023-01-27T00:17:40.832Z,41.02
2023-01-27T00:23:01.362Z,40.93
2023-01-27T00:28:06.307Z,41.25
2023-01-27T00:33:27.978Z,41.21
2023-01-27T00:38:31.811Z,40.79
2023-01-27T00:43:34.022Z,41.17
2023-01-27T00:48:36.002Z,41.18
2023-01-27T00:53:38.098Z,41.10
2023-01-27T00:58:40.408Z,41.00
2023-01-27T01:03:42.977Z,41.09
2023-01-27T01:08:45.384Z,41.01
2023-01-27T01:13:48.140Z,40.97
2023-01-27T01:18:50.365Z,40.91
2023-01-27T01:23:52.275Z,40.83
2023-01-27T01:28:54.071Z,40.97
2023-01-27T01:33:55.981Z,40.85
2023-01-27T01:38:58.067Z,40.84
2023-01-27T01:44:18.579Z,41.11
2023-01-27T01:49:23.959Z,40.59
2023-01-27T01:54:53.925Z,41.04
2023-01-27T02:00:07.207Z,40.63
2023-01-27T02:05:14.918Z,40.61
2023-01-27T02:10:17.162Z,40.56
2023-01-27T02:15:21.639Z,40.39
2023-01-27T02:20:44.519Z,40.91
2023-01-27T02:25:58.588Z,40.79
2023-01-27T02:31:00.600Z,40.92
2023-01-27T02:36:15.161Z,41.03
2023-01-27T02:41:31.834Z,40.67
2023-01-27T02:46:34.102Z,40.46
2023-01-27T02:51:35.991Z,40.94
2023-01-27T02:56:38.101Z,40.62
2023-01-27T03:01:40.020Z,40.79
2023-01-27T03:06:42.143Z,40.85
2023-01-27T03:12:02.907Z,40.59
2023-01-27T03:17:23.397Z,40.61
2023-01-27T03:22:26.545Z,40.93
2023-01-27T03:27:28.364Z,40.70
2023-01-27T03:32:32.018Z,40.66
2023-01-27T03:37:52.621Z,40.60
2023-01-27T03:43:13.315Z,40.59
2023-01-27T03:48:17.581Z,40.67
2023-01-27T03:53:20.887Z,40.41
2023-01-27T03:58:29.327Z,40.44
2023-01-27T04:03:52.721Z,40.59
2023-01-27T04:08:55.108Z,40.47
2023-01-27T04:14:00.238Z,40.23
2023-01-27T04:19:02.032Z,40.32
2023-01-27T04:24:04.551Z,40.35
2023-01-27T04:29:07.667Z,40.39
2023-01-27T04:34:11.017Z,40.49
2023-01-27T04:39:13.195Z,40.49
2023-01-27T04:44:15.440Z,40.83
2023-01-27T04:49:18.590Z,40.82
2023-01-27T04:54:20.855Z,41.38
2023-01-27T04:59:22.827Z,41.93
2023-01-27T05:04:26.801Z,41.64
2023-01-27T05:09:28.884Z,40.96
2023-01-27T05:14:30.791Z,40.86
2023-01-27T05:19:32.725Z,41.21
2023-01-27T05:24:35.105Z,41.45
2023-01-27T05:29:37.582Z,41.20
2023-01-27T05:34:39.612Z,40.74
2023-01-27T05:39:41.733Z,40.85
2023-01-27T05:44:44.149Z,40.63
2023-01-27T05:49:46.177Z,40.73
2023-01-27T05:54:48.057Z,40.46
2023-01-27T05:59:50.165Z,40.25
2023-01-27T06:04:52.047Z,40.53
2023-01-27T06:09:53.969Z,40.40
2023-01-27T06:14:58.574Z,40.77
2023-01-27T06:20:00.562Z,40.62
2023-01-27T06:25:02.522Z,40.41
2023-01-27T06:30:04.627Z,40.54
2023-01-27T06:35:07.149Z,40.19
2023-01-27T06:40:09.664Z,40.31
2023-01-27T06:45:12.739Z,40.48
2023-01-27T06:50:15.247Z,40.41
2023-01-27T06:55:17.618Z,40.26
2023-01-27T07:00:19.980Z,40.31
2023-01-27T07:05:22.010Z,40.34
2023-01-27T07:10:24.009Z,40.03
2023-01-27T07:15:26.035Z,40.09
2023-01-27T07:20:29.164Z,40.85
2023-01-27T07:25:32.518Z,40.88
2023-01-27T07:30:35.302Z,40.83
2023-01-27T07:35:38.685Z,41.04
2023-01-27T07:40:40.974Z,41.00
2023-01-27T07:45:42.871Z,41.44
2023-01-27T07:50:44.873Z,41.37
2023-01-27T07:55:46.957Z,41.28
2023-01-27T08:00:49.228Z,41.49
2023-01-27T08:05:51.381Z,41.17
2023-01-27T08:10:54.708Z,41.13
2023-01-27T08:15:58.435Z,41.05
2023-01-27T08:21:02.340Z,41.00
2023-01-27T08:26:05.923Z,40.91
2023-01-27T08:31:16.453Z,41.18
2023-01-27T08:36:20.186Z,40.88
2023-01-27T08:41:25.214Z,40.79
2023-01-27T08:46:27.252Z,40.71
2023-01-27T08:51:29.468Z,40.61
2023-01-27T08:56:31.478Z,40.94
2023-01-27T09:01:33.633Z,41.25
2023-01-27T09:06:35.905Z,41.04
2023-01-27T09:11:41.125Z,40.93
2023-01-27T09:16:43.206Z,41.13
2023-01-27T09:21:45.164Z,40.78
2023-01-27T09:26:47.443Z,41.10
2023-01-27T09:31:49.417Z,41.00
2023-01-27T09:36:59.989Z,40.97
2023-01-27T09:42:18.119Z,40.83
2023-01-27T09:47:57.570Z,40.69
2023-01-27T09:53:29.733Z,40.90
2023-01-27T09:58:34.448Z,40.66
2023-01-27T10:03:43.632Z,40.76
2023-01-27T10:09:00.791Z,40.56
2023-01-27T10:14:14.646Z,40.58
2023-01-27T10:19:57.341Z,40.63
2023-01-27T10:25:13.131Z,40.72
2023-01-27T10:30:23.036Z,40.40
2023-01-27T10:35:38.423Z,40.36
2023-01-27T10:41:17.884Z,40.63
2023-01-27T10:46:41.540Z,40.38
2023-01-27T10:51:49.988Z,40.14
2023-01-27T10:57:04.131Z,40.39
2023-01-27T11:02:13.751Z,40.48
2023-01-27T11:07:19.608Z,40.39
2023-01-27T11:12:32.473Z,40.32
2023-01-27T11:17:52.893Z,40.36
2023-01-27T11:23:20.098Z,40.17
2023-01-27T11:29:00.571Z,40.18
2023-01-27T11:34:16.437Z,39.94
2023-01-27T11:39:19.133Z,40.11
2023-01-27T11:44:33.011Z,40.00
2023-01-27T11:49:43.192Z,40.33
2023-01-27T11:55:11.687Z,40.33
2023-01-27T12:00:26.162Z,40.05
2023-01-27T12:05:33.886Z,40.03
2023-01-27T12:10:44.426Z,39.76
2023-01-27T12:16:15.954Z,40.10
2023-01-27T12:21:18.554Z,40.55
2023-01-27T12:26:34.816Z,40.18
2023-01-27T12:31:46.760Z,40.52
2023-01-27T12:36:50.546Z,40.44
2023-01-27T12:41:52.853Z,40.62
2023-01-27T12:47:04.454Z,40.33
2023-01-27T12:52:19.684Z,40.42
2023-01-27T12:57:23.504Z,40.49
2023-01-27T13:02:33.226Z,40.50
2023-01-27T13:07:52.016Z,40.56
2023-01-27T13:13:01.617Z,40.35
2023-01-27T13:18:19.504Z,40.91
2023-01-27T13:23:28.607Z,40.50
2023-01-27T13:28:53.723Z,40.35
2023-01-27T13:34:02.914Z,40.48
2023-01-27T13:39:04.850Z,40.33
2023-01-27T13:44:32.399Z,40.22
2023-01-27T13:49:43.359Z,40.15
2023-01-27T13:54:45.393Z,40.31
2023-01-27T13:59:59.538Z,40.10
2023-01-27T14:05:23.245Z,40.23
2023-01-27T14:10:42.017Z,40.07
2023-01-27T14:16:07.788Z,40.01
2023-01-27T14:21:46.490Z,40.16
2023-01-27T14:27:05.939Z,40.01
2023-01-27T14:32:07.865Z,39.91
2023-01-27T14:37:34.810Z,39.72
2023-01-27T14:42:51.224Z,39.55
2023-01-27T14:48:17.097Z,39.58
2023-01-27T14:53:21.945Z,39.68
2023-01-27T14:58:43.278Z,39.19
2023-01-27T15:04:03.323Z,39.54
2023-01-27T15:09:19.849Z,39.40
2023-01-27T15:14:36.829Z,40.49
2023-01-27T15:19:53.886Z,41.55
2023-01-27T15:25:29.998Z,40.38
2023-01-27T15:30:38.792Z,38.99
2023-01-27T15:35:41.876Z,42.13
2023-01-27T15:40:55.536Z,40.82
2023-01-27T15:45:58.653Z,41.31
2023-01-27T15:51:06.990Z,40.74
2023-01-27T15:56:09.988Z,40.04
2023-01-27T16:01:25.863Z,39.87
2023-01-27T16:06:28.048Z,40.09
2023-01-27T16:11:29.964Z,39.64
2023-01-27T16:16:34.852Z,39.64
2023-01-27T16:21:50.492Z,39.71
2023-01-27T16:27:04.603Z,43.23
2023-01-27T16:32:15.142Z,43.81
2023-01-27T16:37:24.251Z,44.22
2023-01-27T16:42:36.268Z,48.27
2023-01-27T16:47:46.163Z,46.97
2023-01-27T16:52:48.188Z,46.29
2023-01-27T16:57:52.651Z,44.83
2023-01-27T17:02:57.207Z,42.66
2023-01-27T17:08:17.099Z,42.25
2023-01-27T17:13:30.205Z,42.33
2023-01-27T17:18:51.730Z,42.07
2023-01-27T17:24:02.315Z,42.65
2023-01-27T17:29:04.701Z,41.96
2023-01-27T17:34:06.557Z,42.03
2023-01-27T17:39:25.586Z,43.19
2023-01-27T17:44:27.967Z,42.56
2023-01-27T17:49:31.190Z,44.27
2023-01-27T17:54:37.721Z,42.77
2023-01-27T17:59:43.895Z,41.92
2023-01-27T18:04:47.115Z,41.47
2023-01-27T18:09:55.954Z,41.64
2023-01-27T18:14:57.974Z,41.47
2023-01-27T18:19:59.775Z,40.97
2023-01-27T18:25:04.084Z,41.37
2023-01-27T18:30:16.292Z,41.42
2023-01-27T18:35:28.028Z,45.48
2023-01-27T18:40:36.126Z,46.29
2023-01-27T18:45:38.009Z,46.03
2023-01-27T18:50:42.193Z,44.90
2023-01-27T18:55:44.679Z,44.40
2023-01-27T19:00:53.414Z,44.23
2023-01-27T19:05:55.476Z,44.39
2023-01-27T19:10:57.539Z,44.06
2023-01-27T19:16:00.166Z,43.67
2023-01-27T19:21:02.542Z,43.54
2023-01-27T19:26:10.939Z,43.14
2023-01-27T19:31:13.122Z,43.15
2023-01-27T19:36:21.247Z,43.12
2023-01-27T19:41:23.198Z,43.00
2023-01-27T19:46:25.391Z,42.99
2023-01-27T19:51:27.651Z,42.62
2023-01-27T19:56:31.949Z,42.58
2023-01-27T20:01:34.076Z,42.39
2023-01-27T20:06:36.265Z,42.32
2023-01-27T20:11:43.315Z,42.53
2023-01-27T20:16:45.980Z,42.57
2023-01-27T20:21:47.960Z,42.76
2023-01-27T20:26:50.065Z,43.03
2023-01-27T20:31:52.916Z,42.56
2023-01-27T20:36:54.981Z,43.04
2023-01-27T20:41:56.862Z,43.78
2023-01-27T20:46:58.825Z,43.77
2023-01-27T20:52:00.808Z,43.54
2023-01-27T20:57:03.066Z,43.26
2023-01-27T21:02:05.154Z,43.21
2023-01-27T21:07:07.826Z,43.19
2023-01-27T21:12:09.793Z,42.97
2023-01-27T21:17:12.374Z,42.55
2023-01-27T21:22:14.575Z,42.33
2023-01-27T21:27:16.353Z,42.49
2023-01-27T21:32:18.110Z,42.53
2023-01-27T21:37:19.790Z,42.58
2023-01-27T21:42:39.772Z,42.46
2023-01-27T21:47:42.758Z,42.59
2023-01-27T21:52:47.583Z,42.28
2023-01-27T21:57:53.262Z,42.36
2023-01-27T22:03:00.653Z,42.25
2023-01-27T22:08:02.760Z,42.80
2023-01-27T22:13:04.889Z,43.15
2023-01-27T22:18:07.506Z,44.03
2023-01-27T22:23:09.533Z,44.62
2023-01-27T22:28:11.427Z,42.70
2023-01-27T22:33:13.674Z,42.50
2023-01-27T22:38:15.670Z,42.07
2023-01-27T22:43:17.665Z,42.09
2023-01-27T22:48:19.638Z,41.88
2023-01-27T22:53:21.794Z,41.57
2023-01-27T22:58:24.104Z,41.73
2023-01-27T23:03:25.962Z,41.49
2023-01-27T23:08:27.804Z,41.23
2023-01-27T23:13:30.879Z,40.97
2023-01-27T23:18:33.133Z,41.02
2023-01-27T23:23:36.328Z,40.46
2023-01-27T23:28:39.023Z,40.81
2023-01-27T23:33:42.229Z,40.67
2023-01-27T23:38:44.367Z,40.37
2023-01-27T23:43:52.419Z,40.14
2023-01-27T23:48:55.658Z,40.22
2023-01-27T23:53:58.135Z,39.90
2023-01-27T23:59:00.226Z,39.86
